Time;durP1;ratioP1;P1;durP2;ratioP2;P2;SDS_P1;SDS_P2;PMS_P1;PMS_P2;Temp;Humidity;BMP_temperature;BMP_pressure;BME280_temperature;BME280_humidity;BME280_pressure;Samples;Min_cycle;Max_cycle;Signal;HPM_P1;HPM_P2
2022/05/16 00:01:51;;;;;;;4.60;2.13;;;12.30;99.90;;;;;;4993256;28;20207;-79
2022/05/16 00:04:19;;;;;;;7.37;2.23;;;12.20;99.90;;;;;;4992866;28;20644;-68
2022/05/16 00:06:47;;;;;;;6.43;2.20;;;12.20;99.90;;;;;;4992561;28;20224;-69
2022/05/16 00:09:14;;;;;;;4.53;2.13;;;12.10;99.90;;;;;;4992834;28;20602;-75
2022/05/16 00:11:41;;;;;;;4.70;2.13;;;12.10;99.90;;;;;;4993581;28;20288;-68
2022/05/16 00:14:08;;;;;;;5.90;2.10;;;12.10;99.90;;;;;;4993150;28;20211;-68
2022/05/16 00:16:34;;;;;;;4.33;1.97;;;12.00;99.90;;;;;;4992529;28;20193;-68
2022/05/16 00:19:04;;;;;;;7.23;2.10;;;12.00;99.90;;;;;;4992726;28;20201;-68
2022/05/16 00:21:31;;;;;;;3.03;1.90;;;11.90;99.90;;;;;;4992622;28;20205;-69
2022/05/16 00:23:58;;;;;;;4.60;2.00;;;11.90;99.90;;;;;;4992222;28;20295;-69
2022/05/16 00:26:25;;;;;;;4.97;2.13;;;11.90;99.90;;;;;;4993657;28;20280;-68
2022/05/16 00:28:52;;;;;;;4.63;2.00;;;11.90;99.90;;;;;;4994788;28;20229;-70
2022/05/16 00:31:19;;;;;;;3.70;2.03;;;11.90;99.90;;;;;;5007802;28;20204;-78
2022/05/16 00:33:46;;;;;;;6.53;2.30;;;11.90;99.90;;;;;;4993787;28;20189;-70
2022/05/16 00:36:13;;;;;;;8.00;2.30;;;11.90;99.90;;;;;;4991251;28;20231;-68
2022/05/16 00:38:40;;;;;;;5.57;2.03;;;11.80;99.90;;;;;;4992253;28;20316;-75
2022/05/16 00:41:07;;;;;;;4.47;2.10;;;11.80;99.90;;;;;;4993314;28;20243;-78
2022/05/16 00:43:55;;;;;;;5.13;2.03;;;11.80;99.90;;;;;;4992447;28;20239;-69
2022/05/16 00:46:25;;;;;;;5.30;2.10;;;11.80;99.90;;;;;;4992166;28;20259;-71
2022/05/16 00:48:52;;;;;;;3.53;2.20;;;11.80;99.90;;;;;;4992024;28;20213;-80
2022/05/16 00:51:24;;;;;;;6.17;2.10;;;11.80;99.90;;;;;;4992529;28;20201;-76
2022/05/16 00:53:59;;;;;;;4.17;2.00;;;11.70;99.90;;;;;;4993093;28;20200;-81
2022/05/16 00:56:27;;;;;;;4.03;2.20;;;11.70;99.90;;;;;;4993157;28;20196;-70
2022/05/16 00:58:55;;;;;;;4.17;1.77;;;11.60;99.90;;;;;;4976197;28;20291;-82
2022/05/16 01:06:58;;;;;;;5.30;2.13;;;11.50;99.90;;;;;;4992677;28;20234;-74
2022/05/16 01:09:27;;;;;;;6.70;2.50;;;11.50;99.90;;;;;;4999262;28;20235;-73
2022/05/16 01:11:58;;;;;;;3.50;2.17;;;11.50;99.90;;;;;;5001263;28;20208;-80
2022/05/16 01:14:40;;;;;;;5.27;2.20;;;11.50;99.90;;;;;;5001445;28;20197;-81
2022/05/16 01:17:10;;;;;;;3.07;1.93;;;11.50;99.90;;;;;;4993823;28;20291;-69
2022/05/16 01:19:37;;;;;;;4.13;2.00;;;11.40;99.90;;;;;;4992118;28;20205;-77
2022/05/16 01:22:22;;;;;;;3.90;1.90;;;11.40;99.90;;;;;;4992211;28;20642;-78
2022/05/16 01:24:52;;;;;;;5.77;2.23;;;11.40;99.90;;;;;;4992114;28;20215;-79
2022/05/16 01:27:19;;;;;;;5.07;2.50;;;11.40;99.90;;;;;;4976740;28;20635;-79
2022/05/16 01:29:46;;;;;;;5.57;1.93;;;11.30;99.90;;;;;;4995252;28;20259;-79
2022/05/16 01:32:13;;;;;;;5.77;2.10;;;11.30;99.90;;;;;;4993513;28;20630;-72
2022/05/16 01:34:40;;;;;;;4.53;2.30;;;11.30;99.90;;;;;;4991423;28;20224;-79
2022/05/16 01:37:08;;;;;;;4.93;2.10;;;11.30;99.90;;;;;;4993448;28;20268;-75
2022/05/16 01:39:35;;;;;;;4.43;1.87;;;11.20;99.90;;;;;;4991496;28;20200;-69
2022/05/16 01:42:02;;;;;;;2.97;1.77;;;11.20;99.90;;;;;;4992907;28;20215;-76
2022/05/16 01:44:29;;;;;;;4.30;1.80;;;11.10;99.90;;;;;;4975185;28;20232;-68
2022/05/16 01:46:56;;;;;;;4.77;1.90;;;11.10;99.90;;;;;;4994515;28;20197;-68
2022/05/16 01:49:23;;;;;;;5.03;1.90;;;11.10;99.90;;;;;;4995541;28;20653;-71
2022/05/16 01:51:50;;;;;;;3.77;1.77;;;11.00;99.90;;;;;;4995412;28;20201;-75
2022/05/16 01:54:17;;;;;;;4.10;1.90;;;11.00;99.90;;;;;;4996662;28;20623;-79
2022/05/16 01:56:45;;;;;;;5.40;2.03;;;10.90;99.90;;;;;;4997527;28;20348;-71
2022/05/16 01:59:12;;;;;;;5.60;2.20;;;10.90;99.90;;;;;;4995403;28;20244;-70
2022/05/16 02:01:40;;;;;;;4.40;1.90;;;10.90;99.90;;;;;;4996279;28;20296;-77
2022/05/16 02:04:11;;;;;;;3.47;1.80;;;11.00;99.90;;;;;;5004646;28;20216;-79
2022/05/16 02:06:51;;;;;;;5.03;2.00;;;10.90;99.90;;;;;;4996817;28;20233;-69
2022/05/16 02:09:18;;;;;;;4.63;1.77;;;10.80;99.90;;;;;;4994649;28;20678;-76
2022/05/16 02:11:45;;;;;;;4.30;1.93;;;10.80;99.90;;;;;;4995053;28;20291;-76
2022/05/16 02:14:12;;;;;;;5.63;2.23;;;10.80;99.90;;;;;;4995878;28;20646;-77
2022/05/16 02:16:39;;;;;;;3.20;1.70;;;10.80;99.90;;;;;;4995993;28;20570;-77
2022/05/16 02:19:06;;;;;;;4.40;1.80;;;10.70;99.90;;;;;;4994619;28;20677;-74
2022/05/16 02:27:04;;;;;;;4.00;1.83;;;10.70;99.90;;;;;;4994326;28;20622;-79
2022/05/16 02:29:31;;;;;;;3.67;1.60;;;10.60;99.90;;;;;;4994540;28;20320;-76
2022/05/16 02:31:58;;;;;;;7.33;1.83;;;10.60;99.90;;;;;;4994569;28;20584;-77
2022/05/16 02:34:25;;;;;;;4.13;1.77;;;10.60;99.90;;;;;;4994517;28;20607;-69
2022/05/16 02:36:52;;;;;;;4.03;1.90;;;10.50;99.90;;;;;;4994479;28;20204;-71
2022/05/16 02:39:20;;;;;;;6.03;2.17;;;10.50;99.90;;;;;;4994391;28;20239;-71
2022/05/16 02:41:47;;;;;;;5.00;1.93;;;10.40;99.90;;;;;;4978493;28;20231;-78
2022/05/16 02:44:14;;;;;;;10.93;2.77;;;10.40;99.90;;;;;;4994344;28;20286;-69
2022/05/16 02:46:41;;;;;;;5.77;1.97;;;10.40;99.90;;;;;;4994292;28;20295;-69
2022/05/16 02:49:08;;;;;;;5.20;1.97;;;10.40;99.90;;;;;;4995197;28;20231;-79
2022/05/16 02:51:36;;;;;;;4.40;1.80;;;10.40;99.90;;;;;;4994320;28;20197;-78
2022/05/16 02:54:03;;;;;;;4.67;1.83;;;10.50;99.90;;;;;;4994166;28;20197;-79
2022/05/16 02:56:31;;;;;;;5.00;1.87;;;10.50;99.90;;;;;;4993971;28;20682;-77
2022/05/16 02:58:58;;;;;;;4.97;1.83;;;10.40;99.90;;;;;;4994010;28;20197;-78
2022/05/16 03:01:25;;;;;;;3.07;1.87;;;10.50;99.90;;;;;;4995868;28;20189;-80
2022/05/16 03:03:52;;;;;;;5.07;1.90;;;10.50;99.90;;;;;;4994017;28;20205;-78
2022/05/16 03:06:19;;;;;;;2.77;1.70;;;10.50;99.90;;;;;;4993696;28;20229;-79
2022/05/16 03:08:46;;;;;;;3.53;1.60;;;10.50;99.90;;;;;;4994039;28;20237;-78
2022/05/16 03:11:13;;;;;;;3.07;1.70;;;10.50;99.90;;;;;;4993570;28;20733;-80
2022/05/16 03:13:40;;;;;;;4.20;2.03;;;10.50;99.90;;;;;;4993519;28;20300;-75
2022/05/16 03:16:07;;;;;;;4.33;1.97;;;10.50;99.90;;;;;;4993751;28;20228;-79
2022/05/16 03:18:34;;;;;;;3.83;1.70;;;10.40;99.90;;;;;;4993458;28;20196;-79
2022/05/16 03:21:01;;;;;;;6.30;2.10;;;10.40;99.90;;;;;;4994015;28;20300;-78
2022/05/16 03:23:28;;;;;;;3.80;1.73;;;10.50;99.90;;;;;;4993598;28;20291;-79
2022/05/16 03:25:54;;;;;;;5.17;1.90;;;10.50;99.90;;;;;;4993650;28;20231;-78
2022/05/16 03:28:21;;;;;;;4.20;1.60;;;10.40;99.90;;;;;;4993488;28;20296;-80
2022/05/16 03:30:48;;;;;;;3.50;1.90;;;10.40;99.90;;;;;;4993585;28;20619;-79
2022/05/16 03:33:15;;;;;;;3.30;1.70;;;10.40;99.90;;;;;;4993245;28;20197;-80
2022/05/16 03:35:43;;;;;;;2.70;1.77;;;10.40;99.90;;;;;;4993262;28;20284;-80
2022/05/16 03:40:41;;;;;;;4.57;1.80;;;10.40;99.90;;;;;;4993555;28;20204;-80
2022/05/16 03:40:57;;;;;;;5.10;1.97;;;10.50;99.90;;;;;;4993272;28;20259;-80
2022/05/16 03:43:24;;;;;;;4.60;1.70;;;10.50;99.90;;;;;;4993350;28;20211;-81
2022/05/16 03:45:51;;;;;;;5.97;1.83;;;10.50;99.90;;;;;;4992973;28;20774;-78
2022/05/16 03:48:18;;;;;;;5.23;1.90;;;10.60;99.90;;;;;;4993959;28;20304;-80
2022/05/16 03:50:45;;;;;;;4.50;1.80;;;10.60;99.90;;;;;;4993603;28;20232;-77
2022/05/16 03:53:12;;;;;;;4.00;1.60;;;10.60;99.90;;;;;;4977017;28;20619;-79
2022/05/16 03:55:38;;;;;;;2.67;1.57;;;10.70;99.90;;;;;;4993051;28;20563;-79
2022/05/16 03:58:05;;;;;;;2.50;1.67;;;10.70;99.90;;;;;;4995063;28;20630;-79
2022/05/16 04:00:32;;;;;;;3.07;1.70;;;10.80;99.90;;;;;;4993755;28;20227;-78
2022/05/16 04:02:59;;;;;;;3.37;1.70;;;10.90;99.90;;;;;;4992640;28;20247;-79
2022/05/16 04:05:26;;;;;;;5.30;1.80;;;11.00;99.90;;;;;;4992940;28;20303;-79
2022/05/16 04:07:53;;;;;;;3.13;1.70;;;11.10;99.90;;;;;;4992807;28;20700;-79
2022/05/16 04:10:20;;;;;;;3.50;1.80;;;11.20;99.90;;;;;;4991635;28;20717;-70
2022/05/16 04:12:47;;;;;;;5.43;2.10;;;11.30;99.90;;;;;;4992993;28;20205;-69
2022/05/16 04:15:15;;;;;;;3.37;1.67;;;11.30;99.90;;;;;;4992140;28;20235;-70
2022/05/16 04:17:43;;;;;;;2.97;1.73;;;11.40;99.90;;;;;;4992410;28;20205;-69
2022/05/16 04:20:11;;;;;;;3.67;1.60;;;11.40;99.90;;;;;;4992408;28;20239;-68
2022/05/16 04:22:39;;;;;;;8.17;2.67;;;11.60;99.90;;;;;;4992775;28;20232;-68
2022/05/16 04:25:07;;;;;;;4.03;1.70;;;11.70;99.90;;;;;;4993432;28;20227;-69
2022/05/16 04:27:34;;;;;;;4.40;1.70;;;11.90;99.90;;;;;;4992484;28;20582;-69
2022/05/16 04:30:01;;;;;;;6.07;1.90;;;12.00;99.90;;;;;;4992353;28;20425;-75
2022/05/16 04:32:28;;;;;;;4.23;1.73;;;12.10;99.90;;;;;;4993439;28;20275;-77
2022/05/16 04:34:55;;;;;;;5.00;1.77;;;12.20;99.90;;;;;;4992056;28;20705;-77
2022/05/16 04:37:22;;;;;;;7.83;2.17;;;12.20;99.90;;;;;;4992457;28;20324;-78
2022/05/16 04:39:49;;;;;;;6.17;1.80;;;12.10;99.90;;;;;;4992318;28;20209;-78
2022/05/16 04:45:01;;;;;;;4.43;1.70;;;12.10;99.90;;;;;;4991880;28;20208;-81
2022/05/16 04:47:30;;;;;;;3.20;1.70;;;12.10;99.90;;;;;;4992609;28;20295;-79
2022/05/16 04:49:57;;;;;;;4.83;1.70;;;12.20;99.90;;;;;;4993360;28;20668;-79
2022/05/16 04:52:23;;;;;;;6.37;1.93;;;12.20;99.90;;;;;;4992439;28;20652;-80
2022/05/16 04:54:51;;;;;;;3.90;1.87;;;12.30;99.90;;;;;;4992059;28;20307;-80
2022/05/16 04:57:18;;;;;;;6.63;2.43;;;12.40;99.90;;;;;;4992331;28;20196;-81
2022/05/16 05:02:48;;;;;;;4.77;1.97;;;12.60;99.90;;;;;;5069950;28;20568;-79
2022/05/16 05:05:21;;;;;;;6.57;1.77;;;12.60;99.90;;;;;;5069059;28;20197;-79
2022/05/16 05:07:48;;;;;;;4.57;1.40;;;12.70;99.90;;;;;;5085563;28;20583;-80
2022/05/16 05:16:15;;;;;;;5.07;1.73;;;12.80;99.90;;;;;;5068366;28;20229;-80
2022/05/16 05:18:43;;;;;;;5.27;1.80;;;12.70;99.90;;;;;;5068921;28;20240;-75
2022/05/16 05:21:11;;;;;;;3.90;1.70;;;12.80;99.90;;;;;;5068363;28;20253;-77
2022/05/16 05:23:39;;;;;;;6.93;1.90;;;12.80;99.90;;;;;;5068401;28;20196;-80
2022/05/16 05:26:09;;;;;;;4.63;1.70;;;12.70;99.90;;;;;;5068156;28;20208;-78
2022/05/16 05:28:37;;;;;;;4.83;1.80;;;12.80;99.90;;;;;;5069545;28;20190;-75
2022/05/16 05:31:04;;;;;;;5.07;1.90;;;12.80;99.90;;;;;;5067576;28;20209;-75
2022/05/16 05:33:31;;;;;;;7.23;1.63;;;12.90;99.90;;;;;;5068377;28;20228;-76
2022/05/16 05:35:58;;;;;;;4.17;2.23;;;12.90;99.90;;;;;;5067709;28;20252;-78
2022/05/16 05:38:25;;;;;;;6.37;2.43;;;12.80;99.90;;;;;;5067933;28;20231;-80
2022/05/16 05:40:52;;;;;;;6.10;2.03;;;12.80;99.90;;;;;;5069089;28;20252;-78
2022/05/16 05:43:19;;;;;;;6.10;2.00;;;12.90;99.90;;;;;;5067551;28;20198;-78
2022/05/16 05:45:46;;;;;;;6.90;2.20;;;12.90;99.90;;;;;;5067689;28;20254;-78
2022/05/16 05:48:13;;;;;;;6.37;2.23;;;12.90;99.90;;;;;;5067701;28;20235;-78
2022/05/16 05:50:39;;;;;;;5.83;1.90;;;12.90;99.90;;;;;;5067803;28;20199;-78
2022/05/16 05:53:06;;;;;;;4.87;2.10;;;12.80;99.90;;;;;;5069044;28;20190;-76
2022/05/16 05:55:33;;;;;;;5.83;1.90;;;12.90;99.90;;;;;;5051139;28;20262;-79
2022/05/16 05:58:00;;;;;;;3.40;1.67;;;12.90;99.90;;;;;;5067573;28;20633;-78
2022/05/16 06:00:27;;;;;;;5.87;2.00;;;13.00;99.90;;;;;;5067002;28;20226;-78
2022/05/16 06:02:55;;;;;;;6.90;2.00;;;13.00;99.90;;;;;;5068279;28;20246;-78
2022/05/16 06:05:22;;;;;;;5.13;1.93;;;13.10;99.90;;;;;;5067209;28;20222;-80
2022/05/16 06:07:49;;;;;;;6.33;2.60;;;13.20;99.90;;;;;;5069278;28;20606;-87
2022/05/16 06:10:16;;;;;;;3.93;2.00;;;13.30;99.90;;;;;;5067973;28;20725;-86
2022/05/16 06:12:43;;;;;;;5.83;1.87;;;13.20;99.90;;;;;;5064491;28;20585;-88
2022/05/16 06:15:11;;;;;;;5.50;1.90;;;13.20;99.90;;;;;;5045482;28;20195;-84
2022/05/16 06:17:39;;;;;;;6.50;2.20;;;13.30;99.90;;;;;;5068516;28;20624;-82
2022/05/16 06:20:08;;;;;;;8.77;1.90;;;13.30;99.90;;;;;;5064066;28;20519;-84
2022/05/16 06:22:36;;;;;;;5.13;2.00;;;13.40;99.90;;;;;;5066211;28;20222;-76
2022/05/16 06:25:34;;;;;;;6.90;1.90;;;13.40;99.90;;;;;;5056465;28;20192;-87
2022/05/16 06:28:08;;;;;;;4.57;1.90;;;13.40;99.90;;;;;;5055769;28;20203;-84
2022/05/16 06:30:37;;;;;;;8.10;1.90;;;13.60;99.90;;;;;;5056485;28;20261;-75
2022/05/16 06:33:05;;;;;;;6.97;1.90;;;13.60;99.90;;;;;;5055309;28;20266;-84
2022/05/16 06:35:33;;;;;;;5.30;2.10;;;13.70;99.90;;;;;;5055235;28;20195;-87
2022/05/16 06:38:22;;;;;;;4.57;1.90;;;13.80;99.90;;;;;;5056511;28;20202;-88
2022/05/16 06:40:50;;;;;;;5.97;1.90;;;13.90;99.90;;;;;;5056152;28;20283;-91
2022/05/16 06:43:19;;;;;;;5.60;1.70;;;14.00;99.90;;;;;;5057640;28;20221;-88
2022/05/16 06:45:46;;;;;;;4.93;1.80;;;14.10;99.90;;;;;;5056437;28;20703;-90
2022/05/16 06:48:13;;;;;;;5.90;1.87;;;14.30;99.90;;;;;;5057049;28;20203;-90
2022/05/16 06:50:42;;;;;;;6.03;1.83;;;14.40;99.90;;;;;;5056194;28;20256;-85
2022/05/16 06:53:15;;;;;;;5.03;1.50;;;14.50;99.90;;;;;;5056445;28;20294;-87
2022/05/16 06:55:42;;;;;;;7.07;1.73;;;14.50;99.90;;;;;;5055299;28;20294;-84
2022/05/16 06:58:09;;;;;;;4.83;1.50;;;14.50;99.90;;;;;;5056440;28;20245;-85
2022/05/16 07:00:37;;;;;;;7.20;1.70;;;14.60;99.90;;;;;;5055496;28;20289;-72
2022/05/16 07:03:04;;;;;;;4.23;1.60;;;14.70;99.90;;;;;;5056058;28;20230;-86
2022/05/16 07:05:49;;;;;;;5.07;1.63;;;14.70;99.90;;;;;;5055769;28;20628;-89
2022/05/16 07:08:19;;;;;;;7.73;1.50;;;14.80;99.90;;;;;;5055972;28;20218;-87
2022/05/16 07:10:48;;;;;;;4.63;1.40;;;14.90;99.90;;;;;;5055793;28;20277;-84
2022/05/16 07:13:21;;;;;;;3.80;1.23;;;15.10;99.90;;;;;;5054947;28;20301;-73
2022/05/16 07:15:48;;;;;;;7.57;1.70;;;15.10;99.90;;;;;;5053786;28;20600;-71
2022/05/16 07:18:16;;;;;;;4.13;1.20;;;15.20;99.90;;;;;;5054677;28;20253;-67
2022/05/16 07:20:42;;;;;;;2.87;1.17;;;15.20;99.90;;;;;;5067861;28;20194;-89
2022/05/16 07:23:10;;;;;;;2.30;0.87;;;15.30;99.90;;;;;;5068512;28;20226;-84
2022/05/16 07:28:23;;;;;;;4.17;1.10;;;15.30;99.90;;;;;;5058913;28;20229;-89
2022/05/16 07:30:51;;;;;;;5.13;1.50;;;15.30;99.90;;;;;;5070308;28;20199;-68
2022/05/16 07:33:19;;;;;;;2.47;1.00;;;15.40;99.90;;;;;;5059616;28;20237;-70
2022/05/16 07:35:50;;;;;;;2.63;1.00;;;15.50;99.90;;;;;;5054283;28;20207;-68
2022/05/16 07:38:19;;;;;;;2.47;0.90;;;15.50;99.90;;;;;;5056557;28;20272;-68
2022/05/16 07:40:46;;;;;;;5.67;1.33;;;15.60;99.90;;;;;;5053098;28;20293;-75
2022/05/16 07:43:13;;;;;;;2.40;0.90;;;15.70;99.20;;;;;;5052336;28;20222;-70
2022/05/16 07:45:40;;;;;;;4.03;0.70;;;15.70;99.90;;;;;;5052817;28;20202;-68
2022/05/16 07:48:08;;;;;;;3.17;1.17;;;15.80;98.00;;;;;;5059030;28;20648;-81
2022/05/16 07:50:39;;;;;;;2.73;0.80;;;15.90;97.60;;;;;;5053153;28;20299;-68
2022/05/16 07:53:11;;;;;;;1.67;0.90;;;16.00;96.80;;;;;;5053974;28;20194;-69
2022/05/16 07:55:40;;;;;;;1.60;0.73;;;16.10;94.50;;;;;;5053009;28;20222;-77
2022/05/16 07:58:07;;;;;;;1.23;0.80;;;16.20;94.70;;;;;;5052841;28;20286;-78
2022/05/16 08:00:34;;;;;;;2.53;0.70;;;16.30;93.40;;;;;;5052595;28;20210;-89
2022/05/16 08:03:02;;;;;;;2.17;0.80;;;16.30;93.00;;;;;;5054374;28;20227;-87
2022/05/16 08:05:29;;;;;;;4.00;0.70;;;16.40;92.70;;;;;;5053119;28;20198;-86
2022/05/16 08:10:42;;;;;;;1.03;0.60;;;16.50;89.50;;;;;;5056613;28;20207;-87
2022/05/16 08:13:10;;;;;;;2.10;0.67;;;16.70;86.00;;;;;;5054410;28;20230;-85
2022/05/16 08:15:40;;;;;;;3.13;0.90;;;17.60;85.00;;;;;;5054446;28;20199;-88
2022/05/16 08:18:09;;;;;;;2.70;0.70;;;18.70;78.40;;;;;;5053367;28;20195;-89
2022/05/16 08:20:39;;;;;;;2.00;0.90;;;19.70;73.00;;;;;;5054310;28;20198;-88
2022/05/16 08:23:06;;;;;;;1.20;0.60;;;20.60;72.10;;;;;;5056720;28;20225;-92
2022/05/16 08:25:33;;;;;;;5.18;0.90;;;21.40;70.20;;;;;;5060896;28;20262;-92
2022/05/16 08:28:00;;;;;;;1.50;0.68;;;21.90;64.90;;;;;;5072893;28;20210;-92
2022/05/16 08:30:27;;;;;;;1.60;0.80;;;22.40;59.90;;;;;;5063667;28;20320;-89
2022/05/16 08:32:57;;;;;;;1.17;0.80;;;22.40;58.70;;;;;;5056126;28;20285;-91
2022/05/16 08:35:24;;;;;;;2.63;0.60;;;22.70;56.10;;;;;;5055302;28;20294;-89
2022/05/16 08:40:56;;;;;;;2.05;0.80;;;22.80;54.80;;;;;;5069901;28;20668;-75
2022/05/16 08:43:48;;;;;;;4.90;1.00;;;22.90;54.00;;;;;;5072269;28;20218;-84
2022/05/16 08:46:55;;;;;;;2.03;1.13;;;23.40;55.80;;;;;;5067767;28;20210;-87
2022/05/16 08:49:56;;;;;;;1.95;0.80;;;23.60;53.50;;;;;;5032567;28;20217;-87
2022/05/16 08:52:36;;;;;;;2.47;0.60;;;24.00;51.00;;;;;;5012612;28;20290;-90
2022/05/16 08:55:26;;;;;;;2.55;0.90;;;23.60;51.10;;;;;;5017110;28;20227;-90
2022/05/16 08:58:05;;;;;;;1.70;0.70;;;23.80;49.60;;;;;;5003834;28;20789;-84
2022/05/16 09:00:41;;;;;;;1.52;0.57;;;24.00;50.60;;;;;;5033314;28;20203;-85
2022/05/16 09:03:14;;;;;;;1.90;0.80;;;24.20;49.10;;;;;;5032414;28;20658;-85
2022/05/16 09:05:51;;;;;;;1.58;0.90;;;24.20;50.00;;;;;;5030913;28;20692;-76
2022/05/16 09:08:38;;;;;;;3.45;0.95;;;23.80;48.10;;;;;;5030626;28;20195;-74
2022/05/16 09:11:14;;;;;;;3.60;0.88;;;23.90;48.10;;;;;;5031082;28;20286;-75
2022/05/16 09:14:03;;;;;;;2.03;0.70;;;23.80;48.10;;;;;;5030795;28;20290;-73
2022/05/16 09:16:42;;;;;;;3.63;0.95;;;24.30;48.70;;;;;;5014466;28;20491;-74
2022/05/16 09:19:50;;;;;;;2.80;0.80;;;24.20;48.80;;;;;;5015783;28;20203;-79
2022/05/16 09:22:39;;;;;;;1.27;0.70;;;24.30;47.10;;;;;;5011308;28;20247;-73
2022/05/16 09:25:06;;;;;;;0.65;0.43;;;24.20;48.40;;;;;;4994554;28;20227;-74
2022/05/16 09:30:27;;;;;;;1.38;0.50;;;24.20;46.80;;;;;;4994271;28;20583;-70
2022/05/16 09:33:27;;;;;;;1.77;0.50;;;24.10;45.10;;;;;;4994241;28;20208;-77
2022/05/16 09:36:05;;;;;;;1.67;0.73;;;24.20;46.20;;;;;;4936348;29;20573;-81
2022/05/16 09:38:32;;;;;;;1.63;0.60;;;24.40;46.60;;;;;;4936560;29;20238;-71
2022/05/16 09:41:02;;;;;;;1.27;0.60;;;24.70;45.80;;;;;;4952397;29;20222;-73
2022/05/16 09:43:33;;;;;;;3.97;0.50;;;24.90;45.70;;;;;;4952659;29;20225;-76
2022/05/16 09:46:14;;;;;;;3.45;0.70;;;25.00;43.70;;;;;;4936943;29;20249;-76
2022/05/16 09:48:41;;;;;;;2.42;0.60;;;24.90;42.90;;;;;;4938526;29;20214;-72
2022/05/16 09:51:09;;;;;;;3.15;0.50;;;24.80;41.30;;;;;;4957165;29;20276;-69
2022/05/16 09:53:38;;;;;;;1.75;0.60;;;24.60;43.20;;;;;;4958277;29;20202;-70
2022/05/16 09:56:30;;;;;;;4.55;0.80;;;24.80;43.00;;;;;;4956921;29;20230;-68
2022/05/16 09:59:03;;;;;;;2.42;0.80;;;24.80;42.50;;;;;;5009023;28;20271;-69
2022/05/16 10:01:34;;;;;;;1.85;0.60;;;24.30;39.90;;;;;;5016009;28;20248;-80
2022/05/16 10:04:17;;;;;;;2.47;0.80;;;24.10;42.30;;;;;;5001469;28;20287;-87
2022/05/16 10:06:57;;;;;;;0.98;0.52;;;24.30;41.80;;;;;;4998207;28;20307;-87
2022/05/16 10:09:34;;;;;;;0.75;0.40;;;24.80;42.50;;;;;;4998650;28;20306;-86
2022/05/16 10:12:01;;;;;;;1.83;0.60;;;24.80;40.90;;;;;;5018971;28;20202;-86
2022/05/16 10:14:31;;;;;;;1.77;0.60;;;24.70;42.80;;;;;;5055161;28;20199;-87
2022/05/16 10:16:58;;;;;;;1.95;0.70;;;25.30;42.30;;;;;;5055911;28;20722;-85
2022/05/16 10:19:27;;;;;;;2.42;0.60;;;25.40;42.10;;;;;;5056520;28;20187;-90
2022/05/16 10:22:03;;;;;;;2.10;0.75;;;25.70;41.00;;;;;;5055570;28;20191;-87
2022/05/16 10:24:34;;;;;;;2.00;0.85;;;25.90;43.20;;;;;;5054577;28;20656;-86
2022/05/16 10:27:06;;;;;;;0.95;0.77;;;26.50;42.10;;;;;;5054733;28;20640;-83
2022/05/16 10:29:37;;;;;;;4.32;0.80;;;26.50;39.90;;;;;;5054539;28;20320;-87
2022/05/16 10:35:28;;;;;;;2.58;0.60;;;26.50;39.70;;;;;;5054153;28;20206;-86
2022/05/16 10:37:58;;;;;;;1.70;0.90;;;26.80;39.10;;;;;;5056746;28;20207;-84
2022/05/16 10:40:31;;;;;;;4.85;0.82;;;27.10;39.60;;;;;;5056315;28;20187;-85
2022/05/16 10:43:40;;;;;;;1.83;0.82;;;26.70;38.10;;;;;;5046329;28;20692;-81
2022/05/16 10:46:15;;;;;;;2.63;1.08;;;25.90;40.10;;;;;;5041542;28;20277;-83
2022/05/16 10:49:03;;;;;;;1.20;0.68;;;26.30;39.40;;;;;;5036374;28;20234;-83
2022/05/16 10:51:39;;;;;;;2.10;0.50;;;26.50;40.00;;;;;;5052785;28;20691;-73
2022/05/16 10:54:35;;;;;;;0.70;0.50;;;26.70;37.80;;;;;;5037273;28;20210;-76
2022/05/16 10:57:22;;;;;;;2.15;0.80;;;26.80;37.90;;;;;;5037372;28;20203;-80
2022/05/16 11:00:00;;;;;;;0.77;0.60;;;27.10;37.90;;;;;;5036843;28;20257;-82
2022/05/16 11:02:42;;;;;;;2.03;0.90;;;27.20;37.50;;;;;;5015838;28;20278;-77
2022/05/16 11:05:15;;;;;;;0.82;0.60;;;27.40;37.60;;;;;;5032144;28;20254;-83
2022/05/16 11:08:03;;;;;;;0.98;0.60;;;27.40;36.70;;;;;;5016214;28;20203;-78
2022/05/16 11:10:39;;;;;;;1.00;0.75;;;27.40;37.90;;;;;;5032562;28;20273;-80
2022/05/16 11:13:20;;;;;;;1.67;0.80;;;27.80;37.40;;;;;;5032931;28;20191;-81
2022/05/16 11:16:02;;;;;;;1.88;0.82;;;28.20;36.60;;;;;;5038980;28;20252;-81
2022/05/16 11:18:45;;;;;;;1.60;0.65;;;28.10;36.40;;;;;;5053284;28;20233;-78
2022/05/16 11:21:28;;;;;;;3.28;0.50;;;28.20;36.40;;;;;;5050045;28;20199;-71
2022/05/16 11:24:19;;;;;;;1.15;0.60;;;28.00;35.40;;;;;;5057071;28;20222;-81
2022/05/16 11:26:54;;;;;;;2.03;0.60;;;28.00;34.90;;;;;;5071342;28;20190;-78
2022/05/16 11:30:09;;;;;;;1.20;0.60;;;28.40;35.60;;;;;;5057218;28;20225;-82
2022/05/16 11:32:54;;;;;;;2.30;0.70;;;28.70;35.60;;;;;;5034308;28;20207;-87
2022/05/16 11:35:35;;;;;;;1.85;0.70;;;28.70;34.80;;;;;;5032596;28;20290;-86
2022/05/16 11:38:03;;;;;;;0.98;0.65;;;29.00;35.60;;;;;;5033163;28;20640;-91
2022/05/16 11:40:50;;;;;;;5.45;0.82;;;28.80;33.80;;;;;;5016170;28;20199;-87
2022/05/16 11:43:26;;;;;;;1.60;0.77;;;29.30;34.80;;;;;;5017025;28;20316;-85
2022/05/16 11:46:24;;;;;;;3.70;0.82;;;29.30;33.90;;;;;;5022017;28;20230;-81
2022/05/16 11:49:12;;;;;;;0.82;0.50;;;29.10;34.20;;;;;;5018926;28;20196;-83
2022/05/16 11:52:05;;;;;;;2.03;0.63;;;29.20;34.00;;;;;;5022585;28;20204;-86
2022/05/16 11:54:36;;;;;;;0.95;0.60;;;29.30;33.30;;;;;;5016183;28;20281;-85
2022/05/16 12:02:38;;;;;;;1.75;0.60;;;30.00;34.10;;;;;;5086899;28;20281;-83
2022/05/16 12:05:12;;;;;;;2.38;0.80;;;30.10;32.80;;;;;;5070502;28;20225;-87
2022/05/16 12:07:44;;;;;;;1.65;0.60;;;30.30;32.50;;;;;;5069573;28;20198;-83
2022/05/16 12:10:14;;;;;;;0.90;0.60;;;29.60;33.20;;;;;;5069143;28;20325;-78
2022/05/16 12:13:03;;;;;;;2.60;0.52;;;29.70;32.60;;;;;;5068979;28;20548;-85
2022/05/16 12:15:30;;;;;;;2.08;0.60;;;29.50;32.90;;;;;;5063325;28;20198;-93
2022/05/16 12:18:01;;;;;;;2.38;0.60;;;29.80;32.40;;;;;;5071336;28;20679;-92
2022/05/16 12:20:44;;;;;;;2.25;0.70;;;29.90;32.10;;;;;;5071635;28;20205;-89
2022/05/16 12:23:14;;;;;;;1.70;0.60;;;30.10;31.20;;;;;;5071750;28;20727;-89
2022/05/16 12:25:42;;;;;;;1.83;0.50;;;30.30;31.90;;;;;;5074090;28;20257;-91
2022/05/16 12:28:12;;;;;;;1.48;0.80;;;30.60;31.80;;;;;;5073917;28;20198;-90
2022/05/16 12:30:55;;;;;;;3.17;0.95;;;30.20;32.60;;;;;;5074420;28;20244;-88
2022/05/16 12:33:41;;;;;;;2.47;0.50;;;30.30;31.70;;;;;;5071773;28;20214;-86
2022/05/16 12:36:34;;;;;;;1.38;0.60;;;30.20;31.40;;;;;;5071068;28;20563;-86
2022/05/16 12:39:18;;;;;;;1.67;0.52;;;30.10;31.80;;;;;;5070148;28;20292;-86
2022/05/16 12:41:52;;;;;;;1.50;0.70;;;29.90;30.70;;;;;;5069903;28;20218;-90
2022/05/16 12:44:31;;;;;;;1.10;0.60;;;30.00;32.60;;;;;;5068978;28;20201;-84
2022/05/16 12:47:25;;;;;;;2.17;0.70;;;30.60;31.80;;;;;;5068891;28;20472;-84
2022/05/16 12:49:55;;;;;;;3.88;0.65;;;30.80;31.30;;;;;;5068061;28;20689;-82
2022/05/16 12:52:46;;;;;;;1.60;0.60;;;30.30;31.20;;;;;;5067526;28;20293;-79
2022/05/16 12:55:53;;;;;;;0.93;0.70;;;30.10;31.00;;;;;;5067653;28;20292;-72
2022/05/16 12:58:48;;;;;;;4.90;0.70;;;30.00;31.10;;;;;;5066935;28;20287;-78
2022/05/16 13:01:34;;;;;;;1.58;0.50;;;29.00;32.40;;;;;;5065170;28;20201;-74
2022/05/16 13:04:01;;;;;;;0.60;0.60;;;29.50;33.50;;;;;;5067469;28;20244;-78
2022/05/16 13:06:31;;;;;;;1.63;0.68;;;29.80;32.30;;;;;;5067819;28;20285;-83
2022/05/16 13:09:37;;;;;;;2.67;0.70;;;29.80;31.90;;;;;;5064156;28;20289;-81
2022/05/16 13:12:31;;;;;;;1.75;0.70;;;29.40;31.90;;;;;;5034114;28;20227;-81
2022/05/16 13:15:08;;;;;;;2.13;0.70;;;29.00;30.90;;;;;;5036148;28;20205;-75
2022/05/16 13:17:48;;;;;;;1.48;0.60;;;28.70;32.10;;;;;;5017694;28;20322;-88
2022/05/16 13:20:18;;;;;;;0.95;0.68;;;29.00;32.40;;;;;;5033911;28;20195;-79
2022/05/16 13:22:48;;;;;;;1.70;0.65;;;29.20;31.70;;;;;;5033598;28;20298;-84
2022/05/16 13:25:18;;;;;;;0.77;0.60;;;29.60;34.70;;;;;;5034166;28;20192;-85
2022/05/16 13:30:43;;;;;;;1.85;0.63;;;29.70;33.00;;;;;;5017816;28;20286;-81
2022/05/16 13:33:28;;;;;;;1.60;0.60;;;29.40;32.90;;;;;;5019463;28;20204;-82
2022/05/16 13:36:12;;;;;;;1.58;0.60;;;29.70;33.10;;;;;;5022104;28;20196;-82
2022/05/16 13:38:39;;;;;;;2.42;0.60;;;29.80;32.00;;;;;;5002393;28;20271;-78
2022/05/16 13:41:06;;;;;;;3.28;0.63;;;29.90;31.70;;;;;;5003576;28;20195;-81
2022/05/16 13:43:33;;;;;;;1.63;0.70;;;29.40;30.00;;;;;;5022869;28;20271;-81
2022/05/16 13:46:01;;;;;;;1.05;0.52;;;29.10;30.40;;;;;;5021225;28;20238;-85
2022/05/16 13:48:28;;;;;;;1.02;0.60;;;29.50;31.80;;;;;;5026027;28;20203;-83
2022/05/16 13:50:59;;;;;;;2.58;0.70;;;29.40;32.70;;;;;;5055067;28;20273;-81
2022/05/16 13:53:27;;;;;;;2.70;0.80;;;29.40;31.50;;;;;;5053526;28;20199;-83
2022/05/16 13:55:58;;;;;;;1.35;0.70;;;29.50;32.20;;;;;;5053477;28;20230;-83
2022/05/16 13:58:27;;;;;;;1.50;0.60;;;29.40;32.80;;;;;;5054667;28;20280;-83
2022/05/16 14:01:29;;;;;;;3.35;0.57;;;29.20;31.90;;;;;;5054236;28;20238;-86